createdAt,value
2023-03-15T00:00:26.768Z,98400.50
2023-03-15T00:02:53.790Z,98397.50
2023-03-15T00:05:21.849Z,98400.44
2023-03-15T00:07:48.702Z,98387.75
2023-03-15T00:10:15.718Z,98386.38
2023-03-15T00:12:42.909Z,98395.50
2023-03-15T00:15:11.309Z,98398.41
2023-03-15T00:17:39.128Z,98395.97
2023-03-15T00:20:09.104Z,98395.16
2023-03-15T00:22:36.044Z,98401.84
2023-03-15T00:25:03.335Z,98397.53
2023-03-15T00:27:30.212Z,98394.28
2023-03-15T00:29:57.949Z,98401.53
2023-03-15T00:32:24.875Z,98383.81
2023-03-15T00:34:54.850Z,98385.91
2023-03-15T00:37:22.142Z,98391.03
2023-03-15T00:39:49.283Z,98393.47
2023-03-15T00:42:16.274Z,98385.75
2023-03-15T00:44:46.123Z,98388.75
2023-03-15T00:47:14.830Z,98381.03
2023-03-15T00:49:41.690Z,98387.25
2023-03-15T00:52:10.853Z,98389.22
2023-03-15T00:54:37.906Z,98391.41
2023-03-15T00:57:04.843Z,98395.50
2023-03-15T00:59:35.196Z,98393.94
2023-03-15T01:02:02.847Z,98390.19
2023-03-15T01:04:33.149Z,98388.31
2023-03-15T01:07:00.047Z,98398.00
2023-03-15T01:09:26.854Z,98391.31
2023-03-15T01:11:53.733Z,98387.56
2023-03-15T01:14:20.666Z,98383.56
2023-03-15T01:16:50.910Z,98396.75
2023-03-15T01:19:17.794Z,98377.97
2023-03-15T01:21:48.395Z,98383.56
2023-03-15T01:24:17.396Z,98374.72
2023-03-15T01:26:44.356Z,98388.13
2023-03-15T01:29:12.241Z,98386.50
2023-03-15T01:31:41.882Z,98385.69
2023-03-15T01:34:09.629Z,98390.25
2023-03-15T01:36:36.606Z,98381.38
2023-03-15T01:39:03.625Z,98386.75
2023-03-15T01:41:40.889Z,98382.19
2023-03-15T01:44:12.485Z,98391.63
2023-03-15T01:46:39.398Z,98384.94
2023-03-15T01:49:25.902Z,98383.66
2023-03-15T01:51:59.228Z,98399.50
2023-03-15T01:54:43.759Z,98396.56
2023-03-15T01:57:16.987Z,98383.97
2023-03-15T01:59:51.350Z,98396.88
2023-03-15T02:02:20.259Z,98392.88
2023-03-15T02:04:50.080Z,98389.13
2023-03-15T02:07:19.956Z,98389.72
2023-03-15T02:10:03.839Z,98386.81
2023-03-15T02:12:35.221Z,98389.47
2023-03-15T02:15:04.430Z,98399.97
2023-03-15T02:17:37.153Z,98392.16
2023-03-15T02:20:18.791Z,98397.78
2023-03-15T02:22:51.830Z,98406.31
2023-03-15T02:25:45.443Z,98396.63
2023-03-15T02:28:14.903Z,98404.13
2023-03-15T02:30:43.488Z,98402.50
2023-03-15T02:33:23.091Z,98404.06
2023-03-15T02:35:51.430Z,98400.25
2023-03-15T02:38:19.895Z,98403.44
2023-03-15T02:40:46.936Z,98402.88
2023-03-15T02:43:19.228Z,98398.25
2023-03-15T02:45:49.496Z,98396.06
2023-03-15T02:48:19.606Z,98401.06
2023-03-15T02:50:46.516Z,98400.75
2023-03-15T02:53:14.749Z,98403.94
2023-03-15T02:55:41.698Z,98400.69
2023-03-15T02:58:10.608Z,98400.94
2023-03-15T03:00:39.427Z,98397.69
2023-03-15T03:03:06.406Z,98398.16
2023-03-15T03:05:33.374Z,98401.91
2023-03-15T03:08:00.396Z,98407.53
2023-03-15T03:10:27.510Z,98401.34
2023-03-15T03:13:02.344Z,98409.88
2023-03-15T03:15:33.379Z,98410.63
2023-03-15T03:18:00.402Z,98406.53
2023-03-15T03:20:30.487Z,98405.16
2023-03-15T03:22:57.968Z,98408.09
2023-03-15T03:25:30.839Z,98402.72
2023-03-15T03:27:58.217Z,98404.84
2023-03-15T03:30:31.300Z,98404.03
2023-03-15T03:32:58.422Z,98402.41
2023-03-15T03:35:25.299Z,98411.50
2023-03-15T03:37:53.825Z,98407.19
2023-03-15T03:40:26.739Z,98408.25
2023-03-15T03:42:53.831Z,98411.19
2023-03-15T03:45:20.740Z,98415.16
2023-03-15T03:47:51.917Z,98417.03
2023-03-15T03:50:19.022Z,98424.25
2023-03-15T03:52:46.010Z,98423.69
2023-03-15T03:55:19.988Z,98415.06
2023-03-15T03:57:46.884Z,98420.44
2023-03-15T04:00:22.271Z,98428.72
2023-03-15T04:02:49.419Z,98434.91
2023-03-15T04:05:17.147Z,98432.22
2023-03-15T04:07:45.102Z,98438.63
2023-03-15T04:10:15.059Z,98436.19
2023-03-15T04:12:45.670Z,98435.38
2023-03-15T04:15:14.091Z,98429.22
2023-03-15T04:17:41.893Z,98428.16
2023-03-15T04:20:12.061Z,98436.19
2023-03-15T04:22:42.377Z,98428.97
2023-03-15T04:25:35.236Z,98420.69
2023-03-15T04:28:15.465Z,98433.84
2023-03-15T04:30:59.130Z,98430.09
2023-03-15T04:33:37.293Z,98428.81
2023-03-15T04:36:24.148Z,98428.56
2023-03-15T04:39:10.011Z,98438.81
2023-03-15T04:42:09.932Z,98435.88
2023-03-15T04:44:56.984Z,98439.38
2023-03-15T04:47:45.516Z,98430.50
2023-03-15T04:50:35.729Z,98443.94
2023-03-15T04:53:20.266Z,98440.44
2023-03-15T04:56:10.235Z,98440.44
2023-03-15T04:59:20.527Z,98462.13
2023-03-15T05:02:14.493Z,98455.13
2023-03-15T05:04:59.609Z,98456.44
2023-03-15T05:07:44.877Z,98464.47
2023-03-15T05:10:33.369Z,98466.09
2023-03-15T05:13:15.628Z,98457.81
2023-03-15T05:16:02.243Z,98462.69
2023-03-15T05:18:46.726Z,98472.94
2023-03-15T05:21:45.476Z,98478.88
2023-03-15T05:24:38.624Z,98473.59
2023-03-15T05:27:24.629Z,98474.03
2023-03-15T05:30:04.936Z,98480.03
2023-03-15T05:32:51.948Z,98485.81
2023-03-15T05:35:27.232Z,98494.78
2023-03-15T05:38:16.011Z,98502.91
2023-03-15T05:40:54.917Z,98498.19
2023-03-15T05:44:00.353Z,98502.81
2023-03-15T05:46:37.661Z,98507.44
2023-03-15T05:49:31.695Z,98505.91
2023-03-15T05:52:09.841Z,98504.94
2023-03-15T05:54:47.042Z,98506.56
2023-03-15T05:57:29.779Z,98502.91
2023-03-15T06:00:18.048Z,98497.03
2023-03-15T06:02:49.980Z,98500.28
2023-03-15T06:05:39.738Z,98496.03
2023-03-15T06:08:12.170Z,98501.47
2023-03-15T06:10:43.883Z,98506.69
2023-03-15T06:13:11.930Z,98508.63
2023-03-15T06:15:39.576Z,98502.75
2023-03-15T06:18:08.468Z,98520.00
2023-03-15T06:20:35.535Z,98512.56
2023-03-15T06:23:08.596Z,98506.19
2023-03-15T06:25:45.395Z,98500.41
2023-03-15T06:28:14.827Z,98503.47
2023-03-15T06:30:50.899Z,98509.31
2023-03-15T06:33:21.614Z,98505.09
2023-03-15T06:35:48.606Z,98514.34
2023-03-15T06:38:15.687Z,98512.00
2023-03-15T06:40:45.021Z,98526.09
2023-03-15T06:43:18.300Z,98526.75
2023-03-15T06:45:46.399Z,98527.59
2023-03-15T06:48:14.533Z,98528.50
2023-03-15T06:50:47.347Z,98531.56
2023-03-15T06:53:15.703Z,98527.94
2023-03-15T06:55:45.246Z,98536.72
2023-03-15T06:58:12.825Z,98527.13
2023-03-15T07:00:40.102Z,98534.78
2023-03-15T07:03:06.982Z,98533.50
2023-03-15T07:05:33.729Z,98548.69
2023-03-15T07:08:00.914Z,98544.41
2023-03-15T07:10:27.717Z,98542.03
2023-03-15T07:12:57.315Z,98547.44
2023-03-15T07:15:24.040Z,98539.66
2023-03-15T07:17:50.904Z,98550.50
2023-03-15T07:20:17.757Z,98550.78
2023-03-15T07:22:45.757Z,98547.84
2023-03-15T07:25:12.607Z,98550.03
2023-03-15T07:27:42.716Z,98558.75
2023-03-15T07:30:10.020Z,98559.84
2023-03-15T07:32:39.115Z,98564.75
2023-03-15T07:35:06.529Z,98559.13
2023-03-15T07:37:33.516Z,98570.75
2023-03-15T07:40:09.734Z,98568.63
2023-03-15T07:42:37.379Z,98561.59
2023-03-15T07:45:05.062Z,98569.69
2023-03-15T07:47:32.090Z,98575.63
2023-03-15T07:49:59.214Z,98576.19
2023-03-15T07:52:26.234Z,98586.75
2023-03-15T07:54:53.521Z,98565.44
2023-03-15T07:57:20.299Z,98576.50
2023-03-15T07:59:47.252Z,98582.75
2023-03-15T08:02:14.666Z,98579.56
2023-03-15T08:04:41.503Z,98577.41
2023-03-15T08:07:08.514Z,98576.56
2023-03-15T08:09:35.475Z,98575.97
2023-03-15T08:12:02.759Z,98570.00
2023-03-15T08:14:31.716Z,98585.91
2023-03-15T08:16:58.591Z,98582.38
2023-03-15T08:19:25.442Z,98574.28
2023-03-15T08:21:53.975Z,98575.91
2023-03-15T08:24:21.817Z,98580.50
2023-03-15T08:26:48.836Z,98577.84
2023-03-15T08:29:16.160Z,98589.47
2023-03-15T08:31:43.038Z,98591.63
2023-03-15T08:34:09.911Z,98591.72
2023-03-15T08:36:36.889Z,98597.66
2023-03-15T08:39:05.656Z,98594.69
2023-03-15T08:41:32.878Z,98591.72
2023-03-15T08:43:59.782Z,98596.59
2023-03-15T08:46:27.722Z,98589.00
2023-03-15T08:48:54.604Z,98590.94
2023-03-15T08:51:21.989Z,98593.91
2023-03-15T08:53:48.915Z,98580.94
2023-03-15T08:56:15.700Z,98598.75
2023-03-15T08:58:42.832Z,98595.53
2023-03-15T09:01:13.162Z,98599.06
2023-03-15T09:03:40.177Z,98593.38
2023-03-15T09:06:07.022Z,98598.25
2023-03-15T09:08:33.819Z,98595.53
2023-03-15T09:11:01.740Z,98593.91
2023-03-15T09:13:28.740Z,98591.47
2023-03-15T09:15:56.605Z,98588.19
2023-03-15T09:18:24.420Z,98587.38
2023-03-15T09:20:51.347Z,98586.59
2023-03-15T09:23:18.279Z,98595.50
2023-03-15T09:25:45.102Z,98587.94
2023-03-15T09:28:12.410Z,98600.66
2023-03-15T09:30:40.912Z,98594.16
2023-03-15T09:33:08.144Z,98583.31
2023-03-15T09:35:35.286Z,98587.38
2023-03-15T09:38:04.087Z,98590.91
2023-03-15T09:40:37.278Z,98591.19
2023-03-15T09:43:07.172Z,98587.13
2023-03-15T09:45:40.178Z,98587.69
2023-03-15T09:48:10.397Z,98583.59
2023-03-15T09:50:46.594Z,98585.47
2023-03-15T09:53:17.883Z,98594.91
2023-03-15T09:55:46.794Z,98588.69
2023-03-15T09:58:18.137Z,98591.34
2023-03-15T10:00:47.808Z,98580.75
2023-03-15T10:03:17.918Z,98575.06
2023-03-15T10:06:05.025Z,98576.38
2023-03-15T10:08:31.891Z,98576.09
2023-03-15T10:10:58.933Z,98571.97
2023-03-15T10:13:25.739Z,98572.47
2023-03-15T10:16:02.666Z,98568.97
2023-03-15T10:18:43.859Z,98565.69
2023-03-15T10:21:13.644Z,98571.03
2023-03-15T10:23:53.458Z,98566.13
2023-03-15T10:26:23.607Z,98578.03
2023-03-15T10:28:51.523Z,98574.50
2023-03-15T10:31:22.865Z,98575.59
2023-03-15T10:33:59.473Z,98568.56
2023-03-15T10:36:26.824Z,98564.72
2023-03-15T10:38:53.721Z,98569.78
2023-03-15T10:41:40.361Z,98584.53
2023-03-15T10:44:11.110Z,98577.78
2023-03-15T10:46:38.165Z,98578.72
2023-03-15T10:49:09.532Z,98577.78
2023-03-15T10:51:43.968Z,98585.06
2023-03-15T10:54:18.676Z,98577.50
2023-03-15T10:56:47.882Z,98592.53
2023-03-15T10:59:19.431Z,98578.56
2023-03-15T11:01:48.321Z,98586.47
2023-03-15T11:04:21.638Z,98581.03
2023-03-15T11:07:00.782Z,98579.41
2023-03-15T11:09:27.631Z,98579.75
2023-03-15T11:11:57.115Z,98570.81
2023-03-15T11:14:24.419Z,98567.59
2023-03-15T11:16:52.622Z,98590.09
2023-03-15T11:19:25.874Z,98586.00
2023-03-15T11:21:53.128Z,98588.97
2023-03-15T11:24:28.164Z,98584.31
2023-03-15T11:26:56.333Z,98592.75
2023-03-15T11:29:26.060Z,98594.66
2023-03-15T11:31:53.328Z,98586.50
2023-03-15T11:34:38.434Z,98584.59
2023-03-15T11:37:13.167Z,98590.25
2023-03-15T11:39:45.763Z,98593.22
2023-03-15T11:42:21.069Z,98582.31
2023-03-15T11:44:50.094Z,98580.34
2023-03-15T11:47:40.392Z,98580.59
2023-03-15T11:50:07.559Z,98574.84
2023-03-15T11:52:34.376Z,98583.22
2023-03-15T11:55:09.693Z,98577.28
2023-03-15T11:57:38.300Z,98577.06
2023-03-15T12:00:24.044Z,98585.53
2023-03-15T12:02:52.301Z,98580.41
2023-03-15T12:05:37.916Z,98577.97
2023-03-15T12:08:19.392Z,98590.44
2023-03-15T12:10:47.182Z,98580.41
2023-03-15T12:13:24.777Z,98595.47
2023-03-15T12:15:52.013Z,98575.19
2023-03-15T12:18:20.899Z,98577.19
2023-03-15T12:20:52.941Z,98587.88
2023-03-15T12:23:19.728Z,98600.91
2023-03-15T12:25:55.004Z,98582.72
2023-03-15T12:28:44.229Z,98597.38
2023-03-15T12:31:13.389Z,98596.13
2023-03-15T12:33:48.460Z,98596.63
2023-03-15T12:36:19.258Z,98602.63
2023-03-15T12:38:55.022Z,98595.81
2023-03-15T12:41:38.754Z,98597.56
2023-03-15T12:44:18.397Z,98589.84
2023-03-15T12:46:45.161Z,98605.66
2023-03-15T12:49:28.732Z,98600.38
2023-03-15T12:51:59.321Z,98609.19
2023-03-15T12:54:31.814Z,98609.50
2023-03-15T12:57:00.299Z,98604.97
2023-03-15T12:59:27.324Z,98589.59
2023-03-15T13:01:55.229Z,98602.63
2023-03-15T13:04:26.353Z,98606.63
2023-03-15T13:07:12.037Z,98607.81
2023-03-15T13:09:51.159Z,98605.94
2023-03-15T13:12:20.749Z,98613.00
2023-03-15T13:14:55.616Z,98612.63
2023-03-15T13:17:34.492Z,98606.91
2023-03-15T13:20:11.341Z,98598.00
2023-03-15T13:22:54.902Z,98599.81
2023-03-15T13:25:38.804Z,98591.31
2023-03-15T13:28:25.715Z,98599.00
2023-03-15T13:30:54.022Z,98597.13
2023-03-15T13:33:21.168Z,98584.13
2023-03-15T13:35:54.232Z,98588.16
2023-03-15T13:38:24.167Z,98593.81
2023-03-15T13:40:51.283Z,98584.53
2023-03-15T13:43:18.308Z,98580.97
2023-03-15T13:45:45.150Z,98580.72
2023-03-15T13:48:13.279Z,98575.97
2023-03-15T13:50:41.000Z,98585.22
2023-03-15T13:53:08.020Z,98586.47
2023-03-15T13:55:36.006Z,98583.72
2023-03-15T13:58:07.493Z,98575.31
2023-03-15T14:00:35.929Z,98579.72
2023-03-15T14:03:07.557Z,98584.88
2023-03-15T14:05:42.384Z,98593.31
2023-03-15T14:08:18.874Z,98583.50
2023-03-15T14:10:57.760Z,98579.75
2023-03-15T14:13:27.926Z,98587.69
2023-03-15T14:15:59.280Z,98586.50
2023-03-15T14:18:37.779Z,98574.13
2023-03-15T14:21:18.706Z,98580.09
2023-03-15T14:23:47.033Z,98577.59
2023-03-15T14:26:13.788Z,98581.41
2023-03-15T14:28:41.707Z,98585.19
2023-03-15T14:31:08.634Z,98587.78
2023-03-15T14:33:42.208Z,98598.91
2023-03-15T14:36:21.885Z,98592.66
2023-03-15T14:38:53.924Z,98603.94
2023-03-15T14:41:24.066Z,98595.66
2023-03-15T14:43:51.162Z,98595.97
2023-03-15T14:46:18.074Z,98602.22
2023-03-15T14:48:45.174Z,98601.31
2023-03-15T14:51:14.824Z,98598.41
2023-03-15T14:53:41.957Z,98603.53
2023-03-15T14:56:11.256Z,98600.00
2023-03-15T14:58:38.149Z,98600.81
2023-03-15T15:01:05.322Z,98588.69
2023-03-15T15:03:34.482Z,98594.75
2023-03-15T15:06:02.516Z,98592.72
2023-03-15T15:08:31.479Z,98585.19
2023-03-15T15:10:58.389Z,98584.53
2023-03-15T15:13:27.121Z,98588.03
2023-03-15T15:15:56.349Z,98596.00
2023-03-15T15:18:25.812Z,98588.47
2023-03-15T15:20:55.808Z,98597.41
2023-03-15T15:23:28.027Z,98599.81
2023-03-15T15:25:57.533Z,98603.03
2023-03-15T15:28:34.526Z,98614.53
2023-03-15T15:31:02.645Z,98605.56
2023-03-15T15:33:29.611Z,98615.44
2023-03-15T15:35:58.083Z,98617.75
2023-03-15T15:38:27.441Z,98633.31
2023-03-15T15:40:54.399Z,98626.16
2023-03-15T15:43:21.414Z,98617.97
2023-03-15T15:45:48.797Z,98624.59
2023-03-15T15:48:15.681Z,98626.66
2023-03-15T15:50:42.595Z,98630.06
2023-03-15T15:53:13.018Z,98626.44
2023-03-15T15:55:39.921Z,98619.34
2023-03-15T15:58:09.767Z,98630.00
2023-03-15T16:00:38.360Z,98629.63
2023-03-15T16:03:15.243Z,98643.56
2023-03-15T16:05:42.655Z,98647.75
2023-03-15T16:08:15.668Z,98633.91
2023-03-15T16:10:42.494Z,98638.66
2023-03-15T16:13:11.911Z,98642.59
2023-03-15T16:15:38.984Z,98646.50
2023-03-15T16:18:09.960Z,98645.88
2023-03-15T16:20:37.709Z,98644.19
2023-03-15T16:23:04.855Z,98650.31
2023-03-15T16:25:33.976Z,98643.56
2023-03-15T16:28:03.230Z,98652.94
2023-03-15T16:30:31.489Z,98654.81
2023-03-15T16:32:58.480Z,98651.06
2023-03-15T16:35:30.656Z,98662.94
2023-03-15T16:37:57.944Z,98667.50
2023-03-15T16:40:27.808Z,98676.66
2023-03-15T16:42:54.869Z,98682.28
2023-03-15T16:45:22.471Z,98680.41
2023-03-15T16:47:49.720Z,98690.34
2023-03-15T16:50:20.645Z,98681.47
2023-03-15T16:52:52.323Z,98683.09
2023-03-15T16:55:22.425Z,98685.78
2023-03-15T16:57:49.344Z,98676.66
2023-03-15T17:00:20.420Z,98677.69
2023-03-15T17:02:51.977Z,98677.69
2023-03-15T17:05:21.856Z,98680.41
2023-03-15T17:07:50.094Z,98684.16
2023-03-15T17:10:21.949Z,98670.94
2023-03-15T17:12:51.080Z,98686.75
2023-03-15T17:15:20.529Z,98680.22
2023-03-15T17:17:48.473Z,98685.84
2023-03-15T17:20:21.596Z,98684.22
2023-03-15T17:22:50.091Z,98684.22
2023-03-15T17:25:17.087Z,98681.78
2023-03-15T17:27:45.179Z,98685.78
2023-03-15T17:30:25.966Z,98689.53
2023-03-15T17:32:57.129Z,98677.63
2023-03-15T17:35:28.193Z,98677.06
2023-03-15T17:37:55.598Z,98664.69
2023-03-15T17:40:25.207Z,98678.63
2023-03-15T17:42:53.334Z,98672.94
2023-03-15T17:45:21.445Z,98670.75
2023-03-15T17:47:49.070Z,98677.97
2023-03-15T17:50:16.429Z,98673.63
2023-03-15T17:53:08.032Z,98671.19
2023-03-15T17:55:35.287Z,98666.63
2023-03-15T17:58:02.762Z,98667.69
2023-03-15T18:00:32.803Z,98656.94
2023-03-15T18:03:01.409Z,98657.19
2023-03-15T18:05:29.523Z,98662.81
2023-03-15T18:08:00.114Z,98668.44
2023-03-15T18:10:32.012Z,98663.31
2023-03-15T18:12:59.500Z,98660.88
2023-03-15T18:15:26.693Z,98665.41
2023-03-15T18:17:54.144Z,98664.84
2023-03-15T18:20:24.303Z,98660.53
2023-03-15T18:22:51.776Z,98673.41
2023-03-15T18:25:29.059Z,98670.97
2023-03-15T18:27:56.101Z,98651.34
2023-03-15T18:30:24.427Z,98655.66
2023-03-15T18:32:52.630Z,98665.59
2023-03-15T18:35:24.112Z,98654.84
2023-03-15T18:37:51.139Z,98655.91
2023-03-15T18:40:19.346Z,98663.16
2023-03-15T18:42:46.349Z,98649.72
2023-03-15T18:45:19.376Z,98658.34
2023-03-15T18:47:49.306Z,98661.84
2023-03-15T18:50:16.707Z,98661.28
2023-03-15T18:52:44.010Z,98663.97
2023-03-15T18:55:14.831Z,98661.53
2023-03-15T18:57:42.214Z,98664.22
2023-03-15T19:00:13.740Z,98654.28
2023-03-15T19:02:44.405Z,98646.78
2023-03-15T19:05:12.460Z,98649.72
2023-03-15T19:07:40.213Z,98642.97
2023-03-15T19:10:14.571Z,98648.34
2023-03-15T19:12:41.763Z,98641.91
2023-03-15T19:15:13.000Z,98642.97
2023-03-15T19:17:40.018Z,98642.97
2023-03-15T19:20:08.323Z,98633.28
2023-03-15T19:22:35.524Z,98637.03
2023-03-15T19:25:02.379Z,98643.22
2023-03-15T19:27:29.267Z,98641.34
2023-03-15T19:29:56.045Z,98645.06
2023-03-15T19:32:23.018Z,98641.00
2023-03-15T19:34:50.345Z,98635.63
2023-03-15T19:37:17.296Z,98649.06
2023-03-15T19:39:44.534Z,98650.94
2023-03-15T19:42:14.799Z,98651.75
2023-03-15T19:44:43.533Z,98638.66
2023-03-15T19:47:10.692Z,98635.72
2023-03-15T19:49:37.842Z,98645.16
2023-03-15T19:52:04.810Z,98647.09
2023-03-15T19:54:34.175Z,98641.50
2023-03-15T19:57:01.318Z,98642.06
2023-03-15T19:59:28.225Z,98638.31
2023-03-15T20:01:55.048Z,98642.88
2023-03-15T20:04:23.437Z,98640.75
2023-03-15T20:06:50.628Z,98644.25
2023-03-15T20:09:17.599Z,98636.19
2023-03-15T20:11:44.457Z,98633.25
2023-03-15T20:14:11.343Z,98629.75
2023-03-15T20:16:38.317Z,98632.44
2023-03-15T20:19:05.136Z,98633.50
2023-03-15T20:21:32.154Z,98644.81
2023-03-15T20:23:59.030Z,98636.50
2023-03-15T20:26:25.850Z,98637.31
2023-03-15T20:28:52.802Z,98639.19
2023-03-15T20:31:19.951Z,98632.44
2023-03-15T20:33:48.658Z,98635.38
2023-03-15T20:36:15.887Z,98625.94
2023-03-15T20:38:42.888Z,98635.88
2023-03-15T20:41:09.834Z,98635.31
2023-03-15T20:43:36.782Z,98643.59
2023-03-15T20:46:04.437Z,98635.78
2023-03-15T20:48:32.490Z,98629.84
2023-03-15T20:50:59.562Z,98633.84
2023-03-15T20:53:26.481Z,98651.75
2023-03-15T20:55:53.337Z,98646.28
2023-03-15T20:58:20.256Z,98647.00
2023-03-15T21:00:47.231Z,98649.63
2023-03-15T21:03:15.624Z,98647.66
2023-03-15T21:05:43.897Z,98654.81
2023-03-15T21:08:11.607Z,98670.38
2023-03-15T21:10:38.836Z,98665.69
2023-03-15T21:13:10.284Z,98666.16
2023-03-15T21:15:47.195Z,98657.22
2023-03-15T21:18:15.426Z,98650.13
2023-03-15T21:20:43.188Z,98656.47
2023-03-15T21:23:10.951Z,98660.94
2023-03-15T21:25:38.141Z,98668.63
2023-03-15T21:28:05.527Z,98672.59
2023-03-15T21:30:33.362Z,98665.50
2023-03-15T21:33:01.652Z,98663.06
2023-03-15T21:35:29.128Z,98660.88
2023-03-15T21:37:56.078Z,98654.13
2023-03-15T21:40:23.148Z,98658.09
2023-03-15T21:42:50.341Z,98657.03
2023-03-15T21:45:17.455Z,98669.41
2023-03-15T21:47:47.094Z,98666.72
2023-03-15T21:50:14.051Z,98661.09
2023-03-15T21:52:40.852Z,98661.91
2023-03-15T21:55:08.380Z,98661.91
2023-03-15T21:57:35.259Z,98658.44
2023-03-15T22:00:05.512Z,98668.91
2023-03-15T22:02:38.914Z,98664.84
2023-03-15T22:05:06.228Z,98670.22
2023-03-15T22:07:33.724Z,98665.41
2023-03-15T22:10:00.541Z,98664.59
2023-03-15T22:12:27.342Z,98666.22
2023-03-15T22:15:04.743Z,98657.38
2023-03-15T22:17:32.331Z,98667.03
2023-03-15T22:19:59.147Z,98661.69
2023-03-15T22:22:26.830Z,98668.91
2023-03-15T22:24:53.648Z,98671.59
2023-03-15T22:27:20.501Z,98666.81
2023-03-15T22:29:47.286Z,98668.19
2023-03-15T22:32:14.540Z,98667.13
2023-03-15T22:34:41.412Z,98664.22
2023-03-15T22:37:08.316Z,98670.63
2023-03-15T22:39:36.026Z,98674.38
2023-03-15T22:42:02.933Z,98673.31
2023-03-15T22:44:30.604Z,98677.88
2023-03-15T22:46:57.632Z,98676.25
2023-03-15T22:49:24.439Z,98673.00
2023-03-15T22:51:51.253Z,98676.97
2023-03-15T22:54:18.440Z,98673.72
2023-03-15T22:56:45.395Z,98670.22
2023-03-15T22:59:12.130Z,98667.53
2023-03-15T23:01:39.107Z,98659.47
2023-03-15T23:04:06.042Z,98671.03
2023-03-15T23:06:32.988Z,98664.59
2023-03-15T23:08:59.998Z,98671.59
2023-03-15T23:11:27.014Z,98668.69
2023-03-15T23:13:54.002Z,98658.50
2023-03-15T23:16:20.852Z,98647.06
2023-03-15T23:18:48.818Z,98638.53
2023-03-15T23:21:15.811Z,98643.91
2023-03-15T23:23:45.715Z,98640.16
2023-03-15T23:26:13.050Z,98638.28
2023-03-15T23:28:40.042Z,98640.97
2023-03-15T23:31:07.538Z,98645.53
2023-03-15T23:33:34.732Z,98651.94
2023-03-15T23:36:02.080Z,98645.53
2023-03-15T23:38:29.231Z,98654.16
2023-03-15T23:40:56.927Z,98638.88
2023-03-15T23:43:23.737Z,98641.56
2023-03-15T23:45:54.889Z,98642.16
2023-03-15T23:48:22.354Z,98634.66
2023-03-15T23:51:07.230Z,98628.47
2023-03-15T23:53:34.990Z,98619.03
2023-03-15T23:56:02.193Z,98614.75
2023-03-15T23:58:32.112Z,98618.69
